Time;durP1;ratioP1;P1;durP2;ratioP2;P2;SDS_P1;SDS_P2;PMS_P1;PMS_P2;Temp;Humidity;BMP_temperature;BMP_pressure;BME280_temperature;BME280_humidity;BME280_pressure;Samples;Min_cycle;Max_cycle;Signal;HPM_P1;HPM_P2
2022/05/12 00:00:37;;;;;;;5.22;3.22;;;;;;;14.56;82.80;94929.94;5150215;27;20536;-60
2022/05/12 00:03:05;;;;;;;3.47;3.17;;;;;;;14.69;81.58;94943.94;5150454;27;20191;-61
2022/05/12 00:05:30;;;;;;;3.85;3.00;;;;;;;14.68;81.90;94939.78;5150021;27;20187;-60
2022/05/12 00:07:56;;;;;;;7.47;2.95;;;;;;;14.74;81.53;94935.84;5150184;27;20278;-60
2022/05/12 00:10:24;;;;;;;4.07;3.20;;;;;;;14.62;81.40;94934.47;5149760;27;20174;-61
2022/05/12 00:12:51;;;;;;;3.67;3.30;;;;;;;14.63;81.59;94930.94;5148725;27;20205;-61
2022/05/12 00:15:23;;;;;;;4.35;2.75;;;;;;;14.54;81.29;94942.06;5149966;27;20175;-64
2022/05/12 00:17:48;;;;;;;3.55;2.78;;;;;;;14.55;80.77;94941.91;5149024;27;20202;-63
2022/05/12 00:20:17;;;;;;;3.42;3.13;;;;;;;14.43;82.11;94930.28;5134522;27;20178;-61
2022/05/12 00:22:43;;;;;;;3.40;2.60;;;;;;;14.33;81.81;94934.69;5135771;27;20199;-59
2022/05/12 00:25:14;;;;;;;5.85;3.20;;;;;;;14.23;82.92;94921.94;5135732;27;20186;-64
2022/05/12 00:27:40;;;;;;;3.50;3.20;;;;;;;14.11;84.54;94915.41;5134284;27;20225;-64
2022/05/12 00:30:09;;;;;;;2.67;2.47;;;;;;;14.05;84.73;94918.56;5135768;27;20166;-61
2022/05/12 00:32:39;;;;;;;7.23;3.33;;;;;;;14.08;84.93;94914.88;5134895;27;20198;-64
2022/05/12 00:35:06;;;;;;;3.20;2.90;;;;;;;14.10;84.44;94924.03;5134394;27;20175;-61
2022/05/12 00:37:31;;;;;;;3.03;2.72;;;;;;;14.08;84.80;94922.56;5135728;27;20205;-61
2022/05/12 00:39:57;;;;;;;3.92;3.38;;;;;;;14.14;83.98;94932.19;5135586;27;20171;-61
2022/05/12 00:42:22;;;;;;;5.95;3.25;;;;;;;14.06;84.67;94924.44;5134234;27;20622;-61
2022/05/12 00:44:48;;;;;;;2.95;2.75;;;;;;;14.09;84.08;94929.28;5135388;27;20644;-61
2022/05/12 00:47:13;;;;;;;8.50;3.25;;;;;;;14.11;84.29;94923.09;5135165;27;20202;-61
2022/05/12 00:49:40;;;;;;;4.32;2.90;;;;;;;14.04;85.31;94921.22;5134087;27;20262;-61
2022/05/12 00:52:20;;;;;;;3.13;2.85;;;;;;;13.94;85.56;94920.50;5134192;27;20678;-61
2022/05/12 00:55:11;;;;;;;3.38;3.08;;;;;;;14.04;85.87;94918.69;5135418;27;20547;-62
2022/05/12 00:57:40;;;;;;;4.63;2.92;;;;;;;14.01;85.22;94929.19;5120439;27;20221;-61
2022/05/12 01:00:09;;;;;;;6.05;3.40;;;;;;;13.98;85.63;94930.28;5135124;27;20624;-61
2022/05/12 01:02:36;;;;;;;3.45;2.90;;;;;;;13.97;85.50;94933.00;5152701;22;20199;-60
2022/05/12 01:05:03;;;;;;;5.10;3.37;;;;;;;14.02;85.64;94943.56;5073776;28;20173;-61
2022/05/12 01:07:29;;;;;;;5.55;3.25;;;;;;;13.85;84.73;94913.69;5073921;28;20288;-60
2022/05/12 01:09:55;;;;;;;4.03;3.20;;;;;;;14.00;84.65;94941.16;5073725;28;20184;-60
2022/05/12 01:12:21;;;;;;;3.20;2.90;;;;;;;13.85;85.42;94934.13;5072285;28;20651;-61
2022/05/12 01:14:47;;;;;;;3.10;2.73;;;;;;;13.76;86.15;94945.19;5073708;28;20177;-60
2022/05/12 01:17:13;;;;;;;3.13;2.83;;;;;;;13.70;86.54;94941.47;5073651;28;20189;-63
2022/05/12 01:19:41;;;;;;;5.23;3.10;;;;;;;13.62;86.82;94941.38;5073607;28;20165;-60
2022/05/12 01:22:10;;;;;;;3.10;2.80;;;;;;;13.39;88.35;94932.47;5073393;28;20187;-61
2022/05/12 01:24:45;;;;;;;3.50;3.20;;;;;;;13.29;89.18;94936.81;5109348;23;20239;-60
2022/05/12 01:27:20;;;;;;;3.97;3.13;;;;;;;13.19;90.21;94931.69;5113760;28;20202;-64
2022/05/12 01:29:51;;;;;;;5.40;2.90;;;;;;;13.24;90.16;94934.66;5113293;28;20163;-64
2022/05/12 01:32:18;;;;;;;3.33;2.97;;;;;;;13.13;91.35;94936.59;5113727;28;20228;-62
2022/05/12 01:34:44;;;;;;;7.30;3.40;;;;;;;13.16;91.41;94943.94;5114172;28;20179;-60
2022/05/12 01:37:10;;;;;;;3.67;2.93;;;;;;;13.06;91.55;94956.75;5113757;28;20176;-64
2022/05/12 01:39:36;;;;;;;4.73;3.00;;;;;;;12.99;92.59;94950.53;5112702;28;20186;-59
2022/05/12 01:42:03;;;;;;;3.73;2.93;;;;;;;12.97;92.77;94952.41;5113672;28;20227;-61
2022/05/12 01:44:29;;;;;;;4.10;3.03;;;;;;;12.86;94.01;94951.75;5113451;28;20207;-60
2022/05/12 01:46:56;;;;;;;5.53;3.50;;;;;;;12.87;94.14;94953.34;5113389;28;20571;-60
2022/05/12 01:49:22;;;;;;;3.43;3.03;;;;;;;12.84;93.97;94959.56;5112592;28;20207;-60
2022/05/12 01:51:49;;;;;;;4.13;3.73;;;;;;;12.89;94.21;94957.38;5113852;28;20182;-62
2022/05/12 01:54:14;;;;;;;4.07;3.03;;;;;;;12.86;93.78;94955.13;5113945;28;20203;-62
2022/05/12 01:56:40;;;;;;;5.70;4.23;;;;;;;12.79;95.08;94953.22;5113472;28;20182;-61
2022/05/12 01:59:05;;;;;;;5.83;3.90;;;;;;;12.82;94.98;94958.88;5112214;28;20212;-61
2022/05/12 02:01:30;;;;;;;5.33;3.10;;;;;;;12.93;94.71;94961.28;5113474;28;20214;-60
2022/05/12 02:03:56;;;;;;;3.00;2.63;;;;;;;12.95;95.20;94958.63;5113762;28;20209;-63
2022/05/12 02:06:22;;;;;;;4.90;3.57;;;;;;;13.02;94.00;94967.31;5113368;28;20233;-62
2022/05/12 02:08:47;;;;;;;4.87;3.30;;;;;;;13.02;93.16;94975.78;5113609;28;20692;-61
2022/05/12 02:11:13;;;;;;;5.43;3.57;;;;;;;12.92;93.37;94974.19;5111775;28;20168;-61
2022/05/12 02:13:38;;;;;;;5.47;3.73;;;;;;;12.85;93.18;94973.91;5113505;27;20704;-60
2022/05/12 02:16:04;;;;;;;5.03;3.60;;;;;;;12.91;93.85;94967.50;5113065;28;20282;-59
2022/05/12 02:18:30;;;;;;;3.77;3.40;;;;;;;13.05;93.77;94984.97;5111781;28;20210;-63
2022/05/12 02:20:57;;;;;;;4.37;3.67;;;;;;;12.96;92.22;94986.53;5111696;28;20184;-60
2022/05/12 02:23:23;;;;;;;4.37;3.90;;;;;;;12.99;91.83;94990.56;5113027;28;20264;-60
2022/05/12 02:25:48;;;;;;;3.60;3.30;;;;;;;13.05;91.84;94984.97;5112925;28;20171;-61
2022/05/12 02:28:14;;;;;;;3.97;3.57;;;;;;;13.00;91.73;94987.06;5113078;28;20570;-59
2022/05/12 02:30:40;;;;;;;4.17;3.30;;;;;;;13.05;92.31;94988.28;5113054;28;20180;-61
2022/05/12 02:33:06;;;;;;;4.93;3.70;;;;;;;12.95;92.14;94984.13;5112700;28;20265;-61
2022/05/12 02:35:31;;;;;;;3.57;3.23;;;;;;;12.58;94.81;94966.94;5111534;28;20180;-60
2022/05/12 02:37:57;;;;;;;4.97;3.77;;;;;;;12.59;95.18;94975.41;5112773;28;20207;-60
2022/05/12 02:40:25;;;;;;;3.77;3.47;;;;;;;12.32;98.06;94975.25;5112871;28;20200;-64
2022/05/12 02:42:51;;;;;;;3.93;3.50;;;;;;;12.02;100.00;94977.91;5112452;28;20710;-60
2022/05/12 02:45:16;;;;;;;3.90;3.50;;;;;;;12.03;100.00;94985.41;5112694;28;20172;-61
2022/05/12 02:47:43;;;;;;;4.57;3.70;;;;;;;12.03;100.00;94972.66;5111079;28;20219;-64
2022/05/12 02:50:10;;;;;;;4.80;3.20;;;;;;;12.10;100.00;94980.59;5112597;28;20254;-60
2022/05/12 02:52:36;;;;;;;3.80;3.40;;;;;;;12.08;100.00;94988.34;5112803;28;20203;-63
2022/05/12 02:55:01;;;;;;;6.17;4.67;;;;;;;12.17;100.00;94981.66;5111310;28;20299;-65
2022/05/12 02:57:27;;;;;;;5.40;3.97;;;;;;;12.05;100.00;94980.97;5112475;28;20661;-60
2022/05/12 02:59:52;;;;;;;4.47;3.37;;;;;;;12.20;100.00;94976.31;5112612;28;20184;-61
2022/05/12 03:02:18;;;;;;;6.17;4.17;;;;;;;12.09;100.00;94994.25;5112232;28;20175;-61
2022/05/12 03:04:44;;;;;;;4.00;3.37;;;;;;;12.22;100.00;94989.75;5112428;28;20171;-64
2022/05/12 03:07:12;;;;;;;4.23;3.70;;;;;;;12.24;100.00;94985.31;5111927;28;20598;-61
2022/05/12 03:09:38;;;;;;;6.47;4.17;;;;;;;12.30;100.00;94992.44;5110349;28;20191;-61
2022/05/12 03:12:04;;;;;;;5.53;3.80;;;;;;;12.22;100.00;94987.97;5112179;28;20258;-60
2022/05/12 03:14:29;;;;;;;4.97;3.97;;;;;;;12.38;100.00;94992.59;5112264;28;20204;-61
2022/05/12 03:16:55;;;;;;;4.90;3.47;;;;;;;12.46;98.54;95002.91;5112387;28;20641;-61
2022/05/12 03:19:22;;;;;;;7.03;4.30;;;;;;;12.44;100.00;94994.59;5112614;28;20211;-61
2022/05/12 03:21:48;;;;;;;4.73;3.70;;;;;;;12.49;98.64;95006.00;5112249;28;20671;-64
2022/05/12 03:24:18;;;;;;;4.93;4.07;;;;;;;12.51;99.82;95005.88;5112411;28;20215;-61
2022/05/12 03:26:45;;;;;;;5.03;4.53;;;;;;;12.39;98.35;95001.81;5110817;28;20703;-64
2022/05/12 03:29:11;;;;;;;4.10;3.33;;;;;;;12.47;97.66;95017.28;5112379;28;20724;-62
2022/05/12 03:31:36;;;;;;;5.80;4.03;;;;;;;12.54;99.06;95019.16;5112206;28;20262;-61
2022/05/12 03:34:02;;;;;;;4.80;4.00;;;;;;;12.48;100.00;95018.91;5112520;28;20227;-62
2022/05/12 03:36:27;;;;;;;10.00;3.90;;;;;;;12.60;100.00;95017.84;5110829;28;20214;-59
2022/05/12 03:38:53;;;;;;;4.97;3.90;;;;;;;13.11;100.00;95028.59;5112280;28;20215;-61
2022/05/12 03:41:18;;;;;;;5.40;3.50;;;;;;;13.84;100.00;95035.56;5112198;28;20172;-59
2022/05/12 03:46:31;;;;;;;4.90;3.67;;;;;;;13.11;100.00;95071.97;5112226;28;20285;-61
2022/05/12 03:48:58;;;;;;;5.63;3.67;;;;;;;12.94;100.00;95069.28;5112426;28;20239;-60
2022/05/12 03:51:23;;;;;;;4.13;3.73;;;;;;;12.70;100.00;95051.81;5112135;28;20180;-59
2022/05/12 03:53:49;;;;;;;5.93;3.60;;;;;;;12.44;100.00;95043.84;5113559;28;20684;-59
2022/05/12 03:56:14;;;;;;;4.93;3.43;;;;;;;12.32;100.00;95044.09;5115940;28;20187;-60
2022/05/12 03:58:40;;;;;;;4.53;3.53;;;;;;;12.25;100.00;95043.81;5116077;28;20294;-59
2022/05/12 04:01:06;;;;;;;4.20;3.77;;;;;;;12.17;100.00;95047.94;5114584;28;20193;-59
2022/05/12 04:03:32;;;;;;;7.23;3.43;;;;;;;11.99;100.00;95054.56;5116027;28;20204;-60
2022/05/12 04:06:02;;;;;;;4.87;4.17;;;;;;;12.09;100.00;95063.88;5115495;28;20229;-59
2022/05/12 04:08:29;;;;;;;5.10;3.90;;;;;;;12.01;100.00;95043.31;5115551;28;20219;-59
2022/05/12 04:10:55;;;;;;;5.20;3.80;;;;;;;12.16;100.00;95066.72;5115587;28;20176;-60
2022/05/12 04:13:20;;;;;;;4.60;3.63;;;;;;;12.04;100.00;95065.22;5115568;28;20205;-59
2022/05/12 04:15:46;;;;;;;8.83;4.30;;;;;;;12.06;100.00;95065.88;5114406;28;20192;-60
2022/05/12 04:18:11;;;;;;;6.50;3.47;;;;;;;12.12;100.00;95065.38;5115667;28;20207;-60
2022/05/12 04:20:38;;;;;;;7.20;4.37;;;;;;;12.01;100.00;95050.16;5115550;28;20568;-61
2022/05/12 04:23:04;;;;;;;6.27;3.70;;;;;;;12.16;100.00;95064.19;5115442;28;20206;-59
2022/05/12 04:25:30;;;;;;;5.47;3.77;;;;;;;12.21;100.00;95055.19;5115221;27;20171;-62
2022/05/12 04:27:55;;;;;;;5.77;4.40;;;;;;;12.27;100.00;95066.59;5115149;28;20211;-60
2022/05/12 04:30:24;;;;;;;6.00;4.60;;;;;;;12.20;100.00;95053.56;5115444;28;20180;-60
2022/05/12 04:32:51;;;;;;;8.93;4.40;;;;;;;12.40;100.00;95054.44;5115211;28;20670;-60
2022/05/12 04:35:17;;;;;;;6.03;4.60;;;;;;;12.56;100.00;95064.94;5114953;28;20648;-60
2022/05/12 04:38:01;;;;;;;5.43;4.80;;;;;;;12.59;100.00;95062.13;5113437;28;20222;-60
2022/05/12 04:40:36;;;;;;;17.00;4.50;;;;;;;12.77;100.00;95062.25;5114676;28;20186;-61
2022/05/12 04:43:02;;;;;;;7.27;4.70;;;;;;;12.86;100.00;95064.84;5114975;28;20286;-60
2022/05/12 04:45:30;;;;;;;6.23;5.50;;;;;;;12.84;100.00;95079.47;5115077;28;20259;-60
2022/05/12 04:47:56;;;;;;;8.73;5.30;;;;;;;12.72;100.00;95065.25;5114459;28;20652;-60
2022/05/12 04:50:28;;;;;;;8.60;5.20;;;;;;;13.02;100.00;95077.88;5114511;28;20645;-62
2022/05/12 04:52:54;;;;;;;9.73;5.03;;;;;;;13.37;100.00;95098.56;5114834;28;20675;-61
2022/05/12 04:55:20;;;;;;;12.07;5.23;;;;;;;13.28;100.00;95083.28;5113465;28;20180;-59
2022/05/12 04:57:48;;;;;;;7.07;5.57;;;;;;;13.54;100.00;95088.59;5114581;28;20219;-59
2022/05/12 05:00:18;;;;;;;6.68;5.15;;;;;;;13.60;100.00;95096.53;5114450;28;20175;-59
2022/05/12 05:02:43;;;;;;;8.88;4.75;;;;;;;13.78;100.00;95111.97;5112799;28;20199;-61
2022/05/12 05:05:10;;;;;;;6.15;4.70;;;;;;;13.83;100.00;95112.38;5114238;28;20683;-59
2022/05/12 05:07:36;;;;;;;10.52;6.10;;;;;;;13.63;100.00;95095.47;5113973;28;20605;-63
2022/05/12 05:10:03;;;;;;;9.20;5.85;;;;;;;13.66;100.00;95095.16;5115010;28;20179;-60
2022/05/12 05:12:28;;;;;;;8.67;6.00;;;;;;;13.63;100.00;95108.25;5114209;28;20175;-62
2022/05/12 05:14:53;;;;;;;10.23;5.90;;;;;;;14.05;100.00;95051.50;5114334;28;20183;-61
2022/05/12 05:17:19;;;;;;;9.93;6.38;;;;;;;14.05;100.00;95102.63;5113906;28;20556;-61
2022/05/12 05:19:44;;;;;;;7.93;6.28;;;;;;;14.08;100.00;95104.06;5114011;28;20183;-61
2022/05/12 05:22:09;;;;;;;9.50;6.90;;;;;;;13.97;100.00;95134.94;5113923;28;20186;-60
2022/05/12 05:24:35;;;;;;;12.52;6.93;;;;;;;13.82;100.00;95126.06;5114367;28;20192;-64
2022/05/12 05:27:01;;;;;;;14.52;7.28;;;;;;;14.27;100.00;95079.25;5113975;28;20202;-60
2022/05/12 05:29:26;;;;;;;12.10;7.60;;;;;;;15.34;100.00;95085.31;5114326;28;20196;-63
2022/05/12 05:31:52;;;;;;;12.10;7.35;;;;;;;15.59;100.00;95126.41;5114166;28;20637;-61
2022/05/12 05:34:18;;;;;;;18.15;11.07;;;;;;;16.02;100.00;95094.00;5113479;28;20200;-61
2022/05/12 05:36:45;;;;;;;8.80;6.80;;;;;;;16.55;100.00;95121.06;5113830;28;20645;-60
2022/05/12 05:39:22;;;;;;;9.18;7.00;;;;;;;16.21;94.87;95199.75;5114199;27;20227;-61
2022/05/12 05:41:49;;;;;;;13.50;6.93;;;;;;;15.56;97.65;95134.38;5113699;28;20163;-60
2022/05/12 05:44:15;;;;;;;8.50;5.65;;;;;;;15.04;99.66;95120.59;5113947;28;20206;-61
2022/05/12 05:46:40;;;;;;;7.15;5.68;;;;;;;14.88;100.00;95120.44;5113328;28;20172;-61
2022/05/12 05:49:05;;;;;;;5.80;5.15;;;;;;;14.96;99.45;95128.19;5113956;28;20264;-61
2022/05/12 05:54:15;;;;;;;8.65;5.03;;;;;;;15.25;99.33;95138.22;5113830;28;20255;-61
2022/05/12 05:56:40;;;;;;;9.60;5.03;;;;;;;15.17;100.00;95122.00;5113505;28;20168;-61
2022/05/12 05:59:06;;;;;;;8.00;6.07;;;;;;;15.11;100.00;95111.38;5112080;28;20211;-61
2022/05/12 06:01:31;;;;;;;6.85;5.28;;;;;;;15.08;100.00;95110.84;5113290;28;20263;-62
2022/05/12 06:03:58;;;;;;;8.30;4.93;;;;;;;15.06;99.85;95116.13;5113548;28;20206;-64
2022/05/12 06:06:24;;;;;;;9.93;4.95;;;;;;;15.13;99.90;95124.84;5113327;28;20259;-60
2022/05/12 06:08:49;;;;;;;11.57;5.40;;;;;;;15.20;98.71;95140.44;5113532;28;20222;-60
2022/05/12 06:11:15;;;;;;;9.20;5.47;;;;;;;15.07;100.00;95111.78;5112925;28;20247;-65
2022/05/12 06:13:41;;;;;;;9.77;5.22;;;;;;;15.24;100.00;95105.06;5113375;28;20200;-60
2022/05/12 06:16:06;;;;;;;8.63;4.85;;;;;;;15.43;100.00;95069.88;5112177;28;20191;-63
2022/05/12 06:18:34;;;;;;;9.15;4.65;;;;;;;16.20;100.00;95082.69;5113155;28;20321;-61
2022/05/12 06:21:00;;;;;;;9.63;5.10;;;;;;;16.82;100.00;95091.78;5111792;28;20182;-64
2022/05/12 06:23:26;;;;;;;6.70;4.72;;;;;;;17.58;100.00;95125.78;5111392;28;20219;-61
2022/05/12 06:25:58;;;;;;;6.03;5.10;;;;;;;17.97;100.00;95146.50;5112837;28;20156;-60
2022/05/12 06:28:24;;;;;;;9.18;6.75;;;;;;;18.37;99.09;95195.34;5111298;28;20219;-60
2022/05/12 06:30:50;;;;;;;12.23;6.95;;;;;;;18.73;94.58;95216.38;5111749;28;20194;-60
2022/05/12 06:33:17;;;;;;;6.68;4.55;;;;;;;19.41;90.86;95252.72;5112819;28;20641;-61
2022/05/12 06:35:43;;;;;;;7.88;5.90;;;;;;;19.37;89.56;95221.31;5112565;28;20656;-60
2022/05/12 06:38:10;;;;;;;10.20;4.90;;;;;;;19.58;91.18;95192.31;5112777;28;20230;-61
2022/05/12 06:40:36;;;;;;;11.57;5.88;;;;;;;19.84;88.70;95229.72;5112409;28;20187;-60
2022/05/12 06:43:07;;;;;;;10.07;5.90;;;;;;;20.07;87.57;95242.63;5112487;28;20195;-60
2022/05/12 06:45:33;;;;;;;13.55;7.10;;;;;;;20.25;85.19;95270.75;5112530;28;20239;-61
2022/05/12 06:47:59;;;;;;;9.05;5.60;;;;;;;20.46;82.38;95302.69;5112372;28;20621;-62
2022/05/12 06:50:28;;;;;;;9.30;5.40;;;;;;;20.52;77.10;95311.56;5111000;28;20239;-61
2022/05/12 06:52:54;;;;;;;13.75;6.38;;;;;;;20.41;72.20;95333.44;5112453;28;20750;-61
2022/05/12 06:55:21;;;;;;;9.85;5.85;;;;;;;20.41;75.47;95257.69;5112145;28;20602;-61
2022/05/12 06:57:47;;;;;;;10.68;6.68;;;;;;;20.58;71.88;95301.28;5112401;28;20739;-64
2022/05/12 07:00:16;;;;;;;10.07;6.57;;;;;;;20.40;68.09;95351.69;5111033;28;20184;-61
2022/05/12 07:02:44;;;;;;;11.75;7.30;;;;;;;20.41;70.04;95299.03;5112103;28;20198;-64
2022/05/12 07:05:11;;;;;;;8.20;5.53;;;;;;;20.40;71.36;95261.28;5110956;28;20268;-61
2022/05/12 07:07:37;;;;;;;10.35;6.68;;;;;;;20.46;70.28;95282.03;5112127;28;20213;-60
2022/05/12 07:10:05;;;;;;;11.30;7.13;;;;;;;20.48;68.99;95289.63;5112487;28;20179;-62
2022/05/12 07:12:31;;;;;;;7.40;5.25;;;;;;;20.61;71.42;95245.88;5112354;28;20231;-64
2022/05/12 07:14:58;;;;;;;6.53;5.22;;;;;;;20.84;69.72;95275.88;5112220;28;20262;-60
2022/05/12 07:17:24;;;;;;;16.83;7.38;;;;;;;20.97;68.56;95289.97;5112130;28;20188;-63
2022/05/12 07:19:50;;;;;;;15.95;5.68;;;;;;;20.95;70.56;95246.19;5112324;28;20561;-60
2022/05/12 07:27:44;;;;;;;10.73;6.13;;;;;;;20.98;70.24;95240.66;5112210;28;20226;-60
2022/05/12 07:30:10;;;;;;;11.07;7.60;;;;;;;21.13;70.05;95233.72;5115610;28;20708;-64
2022/05/12 07:32:37;;;;;;;11.38;6.68;;;;;;;21.27;69.34;95232.13;5115050;28;20298;-60
2022/05/12 07:35:05;;;;;;;11.20;6.68;;;;;;;21.40;69.05;95243.41;5115894;28;20209;-62
2022/05/12 07:37:30;;;;;;;14.98;6.78;;;;;;;21.51;69.31;95242.94;5114407;28;20207;-61
2022/05/12 07:39:56;;;;;;;8.25;6.53;;;;;;;21.46;67.91;95240.09;5116026;28;20641;-59
2022/05/12 07:42:21;;;;;;;13.05;6.82;;;;;;;21.38;63.90;95317.00;5115968;28;20198;-62
2022/05/12 07:44:47;;;;;;;13.45;7.03;;;;;;;21.08;62.96;95312.81;5115858;27;20179;-62
2022/05/12 07:47:13;;;;;;;14.75;6.25;;;;;;;20.79;69.83;95173.97;5114240;28;20235;-60
2022/05/12 07:49:40;;;;;;;8.65;6.15;;;;;;;20.82;68.81;95195.13;5115762;28;20167;-60
2022/05/12 07:52:09;;;;;;;14.27;5.80;;;;;;;21.08;69.97;95168.81;5115765;28;20206;-62
2022/05/12 07:54:35;;;;;;;13.93;6.25;;;;;;;21.29;68.31;95207.66;5115673;28;20206;-62
2022/05/12 07:57:01;;;;;;;8.70;5.25;;;;;;;21.50;67.62;95220.63;5115587;28;20225;-61
2022/05/12 07:59:31;;;;;;;12.77;6.72;;;;;;;21.53;64.80;95251.31;5115291;28;20208;-61
2022/05/12 08:02:00;;;;;;;9.50;6.57;;;;;;;21.42;63.41;95284.63;5115750;28;20179;-59
2022/05/12 08:04:27;;;;;;;17.83;7.05;;;;;;;21.33;66.34;95236.56;5115933;28;20207;-61
2022/05/12 08:06:53;;;;;;;15.10;7.25;;;;;;;21.36;65.04;95249.13;5113924;28;20206;-60
2022/05/12 08:09:19;;;;;;;11.68;7.05;;;;;;;21.22;64.83;95253.34;5114113;28;20203;-61
2022/05/12 08:11:45;;;;;;;16.05;7.63;;;;;;;21.05;64.81;95253.72;5115268;28;20256;-59
2022/05/12 08:14:10;;;;;;;13.50;7.13;;;;;;;20.98;65.38;95235.50;5113598;28;20687;-60
2022/05/12 08:16:37;;;;;;;11.25;6.88;;;;;;;20.79;64.54;95241.19;5115273;28;20172;-60
2022/05/12 08:19:03;;;;;;;20.33;7.90;;;;;;;20.56;66.11;95204.28;5137256;22;20266;-59
2022/05/12 08:21:29;;;;;;;11.48;5.68;;;;;;;20.42;72.02;95096.59;5115368;28;20171;-59
2022/05/12 08:23:55;;;;;;;9.30;6.35;;;;;;;20.67;70.49;95134.06;5114795;28;20704;-59
2022/05/12 08:26:21;;;;;;;9.43;5.03;;;;;;;21.01;69.53;95154.97;5114960;28;20267;-59
2022/05/12 08:28:49;;;;;;;8.00;5.43;;;;;;;21.16;69.58;95144.63;5115284;28;20226;-61
2022/05/12 08:31:14;;;;;;;9.07;6.57;;;;;;;21.49;63.98;95270.78;5114734;27;20251;-62
2022/05/12 08:33:40;;;;;;;12.55;5.38;;;;;;;21.76;64.93;95248.59;5113548;28;20336;-59
2022/05/12 08:36:06;;;;;;;11.25;5.63;;;;;;;21.90;65.13;95228.84;5114874;28;20171;-62
2022/05/12 08:38:32;;;;;;;6.90;4.95;;;;;;;22.00;62.65;95278.56;5115172;28;20207;-64
2022/05/12 08:41:03;;;;;;;8.00;4.50;;;;;;;22.13;64.12;95239.81;5112869;28;20172;-62
2022/05/12 08:43:43;;;;;;;8.02;4.97;;;;;;;22.14;61.69;95254.38;5114910;28;20299;-61
2022/05/12 08:46:12;;;;;;;8.45;4.93;;;;;;;22.14;63.81;95225.88;5113076;28;20168;-60
2022/05/12 08:48:43;;;;;;;8.65;4.82;;;;;;;22.22;62.89;95236.91;5114600;28;20219;-60
2022/05/12 08:51:15;;;;;;;9.43;5.70;;;;;;;22.42;60.47;95291.50;5114584;28;20562;-60
2022/05/12 08:53:54;;;;;;;10.70;5.28;;;;;;;22.51;61.72;95262.66;5114508;28;20294;-59
2022/05/12 08:56:22;;;;;;;5.95;4.90;;;;;;;22.24;58.35;95324.81;5114427;28;20220;-59
2022/05/12 08:58:48;;;;;;;8.45;4.80;;;;;;;22.28;60.33;95251.69;5114602;28;20207;-59
2022/05/12 09:01:36;;;;;;;8.95;5.45;;;;;;;22.14;55.23;95355.41;5114407;28;20178;-61
2022/05/12 09:04:23;;;;;;;5.93;4.75;;;;;;;22.04;51.73;95386.75;5113313;28;20216;-62
2022/05/12 09:07:01;;;;;;;9.65;4.93;;;;;;;21.87;52.40;95348.31;5114112;28;20171;-62
2022/05/12 09:09:48;;;;;;;7.50;4.03;;;;;;;22.10;54.26;95289.41;5114702;28;20203;-60
2022/05/12 09:12:32;;;;;;;7.25;4.63;;;;;;;22.02;52.77;95323.19;5115218;28;20164;-62
2022/05/12 09:15:06;;;;;;;8.98;5.40;;;;;;;22.30;49.86;95378.50;5114315;28;20269;-61
2022/05/12 09:17:59;;;;;;;12.57;5.60;;;;;;;22.31;51.14;95328.25;5113470;27;20203;-62
2022/05/12 09:20:28;;;;;;;7.10;4.95;;;;;;;22.31;53.08;95266.06;5124942;27;20194;-60
2022/05/12 09:22:54;;;;;;;7.40;4.20;;;;;;;22.31;52.68;95282.44;5117096;27;20281;-60
2022/05/12 09:25:37;;;;;;;11.70;5.05;;;;;;;22.36;52.56;95294.84;5134669;27;20657;-63
2022/05/12 09:28:28;;;;;;;7.63;4.30;;;;;;;22.40;48.81;95363.44;5134722;27;20211;-61
2022/05/12 09:30:58;;;;;;;5.10;4.60;;;;;;;22.61;47.23;95385.97;5134520;27;20193;-62
2022/05/12 09:33:35;;;;;;;8.48;4.43;;;;;;;22.52;46.97;95378.28;5134281;27;20287;-61
2022/05/12 09:36:05;;;;;;;5.65;4.57;;;;;;;22.48;46.01;95384.84;5115610;27;20729;-62
2022/05/12 09:38:39;;;;;;;5.78;4.93;;;;;;;22.44;46.08;95369.88;5134416;27;20704;-61
2022/05/12 09:41:21;;;;;;;5.88;3.95;;;;;;;22.71;48.78;95296.53;5115780;27;20202;-58
2022/05/12 09:43:51;;;;;;;8.02;4.28;;;;;;;23.22;52.53;95220.03;5116470;27;20202;-59
2022/05/12 09:46:16;;;;;;;4.88;3.97;;;;;;;23.28;47.64;95328.25;5134694;27;20672;-63
2022/05/12 09:48:44;;;;;;;6.82;3.70;;;;;;;23.03;43.39;95376.38;5134037;27;20249;-61
2022/05/12 09:51:21;;;;;;;6.80;4.05;;;;;;;23.01;45.89;95299.72;5133011;27;20262;-62
2022/05/12 09:53:52;;;;;;;5.80;4.07;;;;;;;23.34;47.23;95275.63;5134020;27;20259;-60
2022/05/12 09:56:31;;;;;;;7.63;3.60;;;;;;;23.67;44.35;95316.50;5134423;27;20202;-60
2022/05/12 09:59:23;;;;;;;3.97;3.40;;;;;;;23.68;43.30;95341.44;5134083;27;20195;-63
2022/05/12 10:08:18;;;;;;;7.45;4.30;;;;;;;24.31;41.26;95322.91;5133714;27;20764;-60
2022/05/12 10:10:47;;;;;;;3.80;3.15;;;;;;;24.25;42.14;95294.28;5133563;27;20605;-63
2022/05/12 10:13:42;;;;;;;6.63;3.67;;;;;;;24.24;39.90;95332.47;5114940;27;20195;-63
2022/05/12 10:16:11;;;;;;;4.45;3.30;;;;;;;24.36;38.21;95359.50;5133985;27;20633;-62
2022/05/12 10:18:43;;;;;;;4.53;2.75;;;;;;;24.86;37.45;95360.78;5135852;27;20214;-62
2022/05/12 10:21:20;;;;;;;5.80;3.72;;;;;;;24.48;37.50;95344.94;5133229;27;20170;-63
2022/05/12 10:24:11;;;;;;;8.32;3.80;;;;;;;24.21;37.82;95325.09;5114731;27;20217;-62
2022/05/12 10:26:42;;;;;;;6.43;3.90;;;;;;;24.53;38.24;95294.91;5133284;27;20178;-62
2022/05/12 10:29:38;;;;;;;3.88;3.50;;;;;;;24.76;39.21;95271.94;5133034;27;20205;-63
2022/05/12 10:32:33;;;;;;;3.60;3.15;;;;;;;24.88;37.47;95302.38;5133375;27;20167;-63
2022/05/12 10:35:38;;;;;;;13.18;4.07;;;;;;;25.22;35.93;95329.13;5101329;23;20241;-63
2022/05/12 10:38:35;;;;;;;6.05;3.45;;;;;;;25.26;35.90;95305.09;5058341;28;20215;-63
2022/05/12 10:41:16;;;;;;;7.47;3.10;;;;;;;25.15;29.46;95409.03;5093017;28;20191;-59
2022/05/12 10:44:09;;;;;;;9.30;3.63;;;;;;;25.49;31.98;95299.47;5092444;28;20224;-61
2022/05/12 10:46:56;;;;;;;2.78;2.53;;;;;;;25.41;31.29;95299.69;5092120;28;20276;-62
2022/05/12 10:49:28;;;;;;;5.65;3.33;;;;;;;25.91;31.79;95275.44;5092601;28;20207;-60
2022/05/12 10:52:02;;;;;;;14.55;4.32;;;;;;;26.15;32.13;95253.84;5092216;28;20196;-61
2022/05/12 10:55:02;;;;;;;10.93;3.40;;;;;;;26.17;32.14;95257.06;5090642;28;20692;-62
2022/05/12 10:57:39;;;;;;;4.15;2.97;;;;;;;26.56;31.72;95254.13;5090782;28;20168;-64
2022/05/12 11:00:27;;;;;;;10.23;2.90;;;;;;;27.14;31.90;95244.19;5092352;28;20202;-60
2022/05/12 11:03:13;;;;;;;6.85;2.78;;;;;;;27.28;30.13;95278.78;5091956;28;20199;-63
2022/05/12 11:05:54;;;;;;;5.30;3.60;;;;;;;27.59;31.38;95236.88;5092455;28;20259;-63
2022/05/12 11:08:43;;;;;;;6.47;2.70;;;;;;;27.16;28.89;95285.75;5091884;28;20218;-63
2022/05/12 11:11:22;;;;;;;5.40;2.50;;;;;;;26.83;28.58;95288.66;5084898;28;20677;-61
2022/05/12 11:13:51;;;;;;;3.88;2.30;;;;;;;27.21;29.63;95249.34;5090432;28;20222;-63
2022/05/12 11:16:27;;;;;;;6.35;2.30;;;;;;;27.38;29.85;95240.75;5092303;28;20187;-62
2022/05/12 11:19:11;;;;;;;4.53;3.03;;;;;;;27.23;29.20;95249.94;5091661;28;20187;-60
2022/05/12 11:21:43;;;;;;;13.48;4.25;;;;;;;27.52;29.76;95230.13;5091880;28;20188;-62
2022/05/12 11:24:24;;;;;;;4.80;3.08;;;;;;;27.78;30.52;95204.44;5091968;28;20204;-61
2022/05/12 11:27:09;;;;;;;7.60;3.35;;;;;;;28.02;31.18;95181.78;5090502;28;20180;-61
2022/05/12 11:30:14;;;;;;;5.15;2.50;;;;;;;28.00;31.19;95189.88;5091701;28;20243;-60
2022/05/12 11:33:18;;;;;;;7.18;2.80;;;;;;;27.92;29.97;95213.69;5091848;28;20219;-62
2022/05/12 11:35:52;;;;;;;2.70;2.50;;;;;;;27.06;30.12;95207.13;5091621;28;20654;-60
2022/05/12 11:38:37;;;;;;;4.30;2.85;;;;;;;27.15;31.01;95164.81;5091879;28;20214;-62
2022/05/12 11:41:04;;;;;;;3.60;2.90;;;;;;;27.74;33.77;95103.16;5092146;28;20601;-61
2022/05/12 11:46:51;;;;;;;8.38;3.55;;;;;;;28.01;30.98;95148.84;5092276;28;20672;-63
2022/05/12 11:49:40;;;;;;;3.15;2.85;;;;;;;28.42;32.12;95119.19;5080120;23;20225;-63
2022/05/12 11:52:45;;;;;;;3.13;2.80;;;;;;;28.39;30.74;95153.63;5071421;28;20188;-60
2022/05/12 11:55:22;;;;;;;3.53;2.70;;;;;;;28.29;30.58;95154.22;5001213;28;20239;-60
2022/05/12 11:58:00;;;;;;;4.20;3.00;;;;;;;28.65;29.77;95164.47;5051282;28;20250;-60
2022/05/12 12:00:35;;;;;;;3.78;2.83;;;;;;;28.81;31.79;95128.94;5051055;28;20210;-61
2022/05/12 12:03:24;;;;;;;4.50;2.80;;;;;;;28.34;29.06;95182.31;5051224;28;20217;-61